AREA preflight bulletin
Updated "live" 28 Jan 2020, 00:39

back to the map




METAR og TAF


THULE (MIL)
  AKTUEL BGTL 272256Z AUTO 10012KT 9999 CLR M28/M30 A2955 RMK AO2 SLP000 T12811301 TSNO ?=
  TAF 24 timer BGTL 271800Z 2718/2824 10012KT 9999 SCT070 QNH2950INS BECMG 2723/2724 10012KT 9999 BKN030 OVC100 QNH2952INS BECMG 2815/2816 10012KT 9999 BKN010 OVC050 QNH2953INS TXM23/2804Z TNM28/2814Z LAST NO AMDS AFT 2720 NEXT 2810=

QAANAAQ
  AKTUEL BGQQ 272350Z 00000KT 9999 SCT071 M22/M28 Q1001=
  TAF 9 timer BGQQ 272055Z 2721/2803 VRB03KT 9999 SCT090 PROB40 2802/2803 BKN035=

UPERNAVIK
  AKTUEL BGUK 272350Z 06005KT 020V100 9999 -SN BKN008 M18/M21 Q1001=
  TAF 9 timer BGUK 280022Z 2800/2804 06008KT 9999 BKN008=

ILULISSAT
  AKTUEL BGJN 272350Z 11006KT 9999 OVC027 M14/M20 Q0999 RMK 8SC =
  TAF 9 timer BGJN 272003Z 2720/2803 VRB08KT 9999 BKN025 PROB40 2720/2803 2500 -SN BKN012=

KANGERLUSSUAQ
  AKTUEL BGSF 280020Z AUTO 06008KT 9999NDV -SG BKN027/// BKN032/// OVC040/// M15/M19 Q1000=
  TAF 24 timer BGSF 272256Z 2800/2906 06005KT 9999 BKN040 TEMPO 2800/2804 4000 -SN BKN020 BECMG 2804/2807 SCT050 TEMPO 2807/2906 BKN050=


SIGMETS:

SONDRESTROM FIR
  SIGMET BGGL SIGMET U07 VALID 272140/280140 BGSF- BGGL NUUK FIR SEV TURB FCST AT 2140Z WI N7151 W02426 - N7140 W02237 - N6942 W02318 - N6828 W02611 - N6546 W03542 - N6655 W03653 - N7151 W02426 SFC/FL130 STNR WKN=

SNOWTAM:

ICAO
BGUK (UPERNAVIK)

valid from:
2001272122

Notam_id:
0181

SNOWTAM 0181 A) BGUK B) 01272122 C) 05 F) 487/487/487 G) 5/5/5 H) 5/5/5 N) 487/MEDIUM R) 487/POOR T) RWY CONTAMINATION 100 PERCENT 1MM DRY SNOW, 10 PERCENT 2MM COMPACTED SNOW AND 10 PERCENT 2MM ICE - MEASURED FRICTION COEFFIECIENT 65/66/72 TAP - SWEEPING IN PROGRESS


ICAO
BGSF (KANGERLUSSUAQ)

valid from:
2001272014

Notam_id:
0303

SNOWTAM 0303 A) BGSF B) 01272014 C) 09 F) 48/48/48 G) 6/6/6 H) 3/5/5 N) A B C/48/MEDIUM D/48/POOR R) N E/48/POOR W/487/POOR HELIPAD/48/POOR T) MEASURED FRICTION COEFFICIENTS 35/50/50 TAP, RWY CONTAMINATION 100 PERCENT 1MM DRY SNOW AND 10 PERCENT 5MM COMPACTED OR ROLLED SNOW, SWEEPING IN PROGRESS



NOTAM/SNOWTAM for operationel use has to be confirmed with the
nearest AIS Briefing Office prior to a flight.

ICAO
BGQQ (QAANAAQ)

FIR
BGGL

Notam_id:
BGB0677/19

valid from:
1910221717

E) SEA RESCUE SERVICE NOT AVAILABLE.

valid to:
2006301830




ICAO
BGQQ (QAANAAQ)

FIR
BGGL

Notam_id:
BGB0606/19

valid from:
1909101336

E) DUE TO DIFFERENCE IN SURFACE LEVEL. A 7 METER LONG SLOPE, 0.8 DEGREE INCLINE ON THE RUNWAY. STARTING 220 METERS FROM RWY 17 EDGE.

valid to:
2008011200




ICAO
BGQQ (QAANAAQ)

FIR
BGGL

Notam_id:
BGB0090/20

valid from:
2001221305

E) PRESENT WEATHER SENSOR OUT OF SERVICE.

valid to:
2004151830


Replacing:
BGB0064/20

ICAO
BGUK (UPERNAVIK)

FIR
BGGL

Notam_id:
BGB0124/20

valid from:
2001271458

E) OBSTRUCTION LIGHT ON WINDSOCK AT RWY 23 U/S.

valid to:
2001280800EST


Replacing:
BGB0068/20

ICAO
BGUK (UPERNAVIK)

FIR
BGGL

Notam_id:
BGB0836/19

valid from:
1912301116

E) FIRE AND RESCUE CAT. 5 ONLY AVAILBLAE WHEN REQUESTED DUE TO LACK OF STAFF.

valid to:
2006301400


Replacing:
BGB0145/19

ICAO
BGUK (UPERNAVIK)

FIR
BGGL

Notam_id:
BGB0125/20

valid from:
2001271502

E) SWEEPER U/S DUE TO MAINTENANCE.

valid to:
2001280800EST


Replacing:
BGB0085/20

ICAO
BGUK (UPERNAVIK)

FIR
BGGL

Notam_id:
BGB0808/19

valid from:
1912121543

E) SEARESCUE SERVICE NOT AVAILABLE.

valid to:
2005151400EST




ICAO
BGGL (SONDRESTROM FIR)

FIR
BGGL

Notam_id:
BGA0483/19

valid from:
1909271038

E) NUUK INFORMATION FREQ 5526 KHZ PSN 6334N03707W KULUSUK U/S.

valid to:
2004011800




ICAO
BGGL (SONDRESTROM FIR)

FIR
BGGL

Notam_id:
BGA0001/20

valid from:
2001010613

E) CHECKLIST YEAR=2018 0199 YEAR=2019 0483 0584 0601 0608 0609 YEAR=2020 NIL LATEST PUBLICATIONS AIP AIRAC AMDT IFR 008/2019 EFFECTIVE DATE 05 DEC 19 AIP AMDT IFR 003/2018 EFFECTIVE DATE 15 MAR 18 AIP SUP IFR 002/2019 EFFECTIVE DATE 08 NOV 19 AIC IFR A001/2019 EFFECTIVE DATE 17 JAN 19 AIC CHECKLIST AIP IFR A001/2016 A002/2016 A001/2017 A002/2017 A002/2018 A003/2018 A004/2018 A001/2019 AIP VFR NIL AIP MIL NIL SUP CHECKLIST AIP IFR NIL AIP VFR NIL AIP MIL NIL

valid to:
2002010613EST


Replacing:
BGA0594/19

ICAO
BGGL (SONDRESTROM FIR)

FIR
BGGL

Notam_id:
BGB0001/20

valid from:
2001010614

E) CHECKLIST YEAR=2019 0606 0677 0696 0734 0765 0787 0801 0808 0817 0819 0827 0828 0829 0831 0833 0836 YEAR=2020 NIL LATEST PUBLICATIONS AIP AIRAC AMDT IFR 008/2019 EFFECTIVE DATE 05 DEC 19 AIP AMDT IFR 003/2018 EFFECTIVE DATE 15 MAR 18 AIP SUP IFR 002/2019 EFFECTIVE DATE 08 NOV 19 AIC IFR A001/2019 EFFECTIVE DATE 17 JAN 19 AIC CHECKLIST AIP IFR A001/2016 A002/2016 A001/2017 A002/2017 A002/2018 A003/2018 A004/2018 A001/2019 AIP VFR NIL AIP MIL NIL SUP CHECKLIST AIP IFR NIL AIP VFR NIL AIP MIL NIL

valid to:
2002010614EST


Replacing:
BGB0781/19

ICAO
BGGL (SONDRESTROM FIR)

FIR
BGGL

Notam_id:
BGC0001/20

valid from:
2001010614

E) CHECKLIST YEAR=2019 0128 0132 0133 0134 YEAR=2020 NIL LATEST PUBLICATIONS AIP AIRAC AMDT IFR 008/2019 EFFECTIVE DATE 05 DEC 19 AIP AMDT IFR 003/2018 EFFECTIVE DATE 15 MAR 18 AIP SUP IFR 002/2019 EFFECTIVE DATE 08 NOV 19 AIC IFR A001/2019 EFFECTIVE DATE 17 JAN 19 AIC CHECKLIST AIP IFR A001/2016 A002/2016 A001/2017 A002/2017 A002/2018 A003/2018 A004/2018 A001/2019 AIP VFR NIL AIP MIL NIL SUP CHECKLIST AIP IFR NIL AIP VFR NIL AIP MIL NIL

valid to:
2002010614EST


Replacing:
BGC0127/19

ICAO
BGGL (SONDRESTROM FIR)

FIR
BGGL

Notam_id:
BGA0010/20

valid from:
2002270000

E) AIP GREENLAND AIRAC AMDT EFFECTIVE DATE 27 FEB 2020: NIL

valid to:
2003112359




ICAO
BGGL (SONDRESTROM FIR)

FIR
BGGL

Notam_id:
BGA0199/18

valid from:
1805310935

E) GREENLAND AND ADJACENT WATERS ARE CONSIDERED HOSTILE AREAS BY THE CIVIL AVIATION AUTHORITY (TBST). THREE MAJOR REASONS CONTRIBUTE TO DEFINING THE AREA AS HOSTILE: A SAFE FORCED LANDING CANNOT BE ACCOMPLISHED BECAUSE THE SURFACE IS INADEQUATE. THE HELICOPTER OCCUPANTS CANNOT BE ADEQUATELY PROTECTED FROM THE ELEMENTS. SEARCH AND RESCUE RESPONSE/CAPABILITY ARE NOT PROVIDED CONSISTENT WITH ANTICIPATED EXPOSURE.

valid to:
PERM




ICAO
BGGL (SONDRESTROM FIR)

FIR
BGGL

Notam_id:
BGA0601/19

valid from:
2001300000

E) AIP GREENLAND AIRAC AMDT EFFECTIVE DATE 30 JAN 2020: NIL.

valid to:
2002122359





Copyright Naviair   2003-2016